sensor_id;sensor_type;location;lat;lon;timestamp;temperature;humidity
10411;DHT22;5251;52.112;8.606;2022-10-16T00:01:25;15.60;99.90
10411;DHT22;5251;52.112;8.606;2022-10-16T00:03:51;15.60;99.90
10411;DHT22;5251;52.112;8.606;2022-10-16T00:06:19;15.60;99.90
10411;DHT22;5251;52.112;8.606;2022-10-16T00:08:44;15.60;99.90
10411;DHT22;5251;52.112;8.606;2022-10-16T00:11:13;15.60;99.90
10411;DHT22;5251;52.112;8.606;2022-10-16T00:13:41;15.60;99.90
10411;DHT22;5251;52.112;8.606;2022-10-16T00:16:07;15.60;99.90
10411;DHT22;5251;52.112;8.606;2022-10-16T00:18:33;15.60;99.90
10411;DHT22;5251;52.112;8.606;2022-10-16T00:21:28;15.60;99.90
10411;DHT22;5251;52.112;8.606;2022-10-16T00:24:00;15.60;99.90
10411;DHT22;5251;52.112;8.606;2022-10-16T00:26:27;15.60;99.90
10411;DHT22;5251;52.112;8.606;2022-10-16T00:28:53;15.60;99.90
10411;DHT22;5251;52.112;8.606;2022-10-16T00:31:21;15.60;99.90
10411;DHT22;5251;52.112;8.606;2022-10-16T00:33:47;15.60;99.90
10411;DHT22;5251;52.112;8.606;2022-10-16T00:36:15;15.60;99.90
10411;DHT22;5251;52.112;8.606;2022-10-16T00:38:41;15.50;99.90
10411;DHT22;5251;52.112;8.606;2022-10-16T00:41:09;15.50;99.90
10411;DHT22;5251;52.112;8.606;2022-10-16T00:43:54;15.50;99.90
10411;DHT22;5251;52.112;8.606;2022-10-16T00:46:25;15.60;99.90
10411;DHT22;5251;52.112;8.606;2022-10-16T00:48:59;15.50;99.90
10411;DHT22;5251;52.112;8.606;2022-10-16T00:51:38;15.50;99.90
10411;DHT22;5251;52.112;8.606;2022-10-16T00:54:08;15.50;99.90
10411;DHT22;5251;52.112;8.606;2022-10-16T00:56:34;15.50;99.90
10411;DHT22;5251;52.112;8.606;2022-10-16T00:59:02;15.50;99.90
10411;DHT22;5251;52.112;8.606;2022-10-16T01:01:29;15.40;99.90
10411;DHT22;5251;52.112;8.606;2022-10-16T01:03:54;15.40;99.90
10411;DHT22;5251;52.112;8.606;2022-10-16T01:12:09;15.30;99.90
10411;DHT22;5251;52.112;8.606;2022-10-16T01:15:05;15.30;99.90
10411;DHT22;5251;52.112;8.606;2022-10-16T01:17:45;15.30;99.90
10411;DHT22;5251;52.112;8.606;2022-10-16T01:20:31;15.30;99.90
10411;DHT22;5251;52.112;8.606;2022-10-16T01:28:16;15.20;99.90
10411;DHT22;5251;52.112;8.606;2022-10-16T01:30:45;15.20;99.90
10411;DHT22;5251;52.112;8.606;2022-10-16T01:33:37;15.20;99.90
10411;DHT22;5251;52.112;8.606;2022-10-16T01:36:15;15.20;99.90
10411;DHT22;5251;52.112;8.606;2022-10-16T01:38:44;15.20;99.90
10411;DHT22;5251;52.112;8.606;2022-10-16T01:41:21;15.20;99.90
10411;DHT22;5251;52.112;8.606;2022-10-16T01:43:57;15.10;99.90
10411;DHT22;5251;52.112;8.606;2022-10-16T01:46:24;15.10;99.90
10411;DHT22;5251;52.112;8.606;2022-10-16T01:48:51;15.10;99.90
10411;DHT22;5251;52.112;8.606;2022-10-16T01:51:18;15.10;99.90
10411;DHT22;5251;52.112;8.606;2022-10-16T01:53:49;15.10;99.90
10411;DHT22;5251;52.112;8.606;2022-10-16T01:56:17;15.10;99.90
10411;DHT22;5251;52.112;8.606;2022-10-16T01:58:54;15.10;99.90
10411;DHT22;5251;52.112;8.606;2022-10-16T02:01:23;15.10;99.90
10411;DHT22;5251;52.112;8.606;2022-10-16T02:03:52;15.10;99.90
10411;DHT22;5251;52.112;8.606;2022-10-16T02:06:19;15.00;99.90
10411;DHT22;5251;52.112;8.606;2022-10-16T02:08:45;15.00;99.90
10411;DHT22;5251;52.112;8.606;2022-10-16T02:11:10;15.00;99.90
10411;DHT22;5251;52.112;8.606;2022-10-16T02:13:58;15.00;99.90
10411;DHT22;5251;52.112;8.606;2022-10-16T02:16:39;15.00;99.90
10411;DHT22;5251;52.112;8.606;2022-10-16T02:19:06;15.00;99.90
10411;DHT22;5251;52.112;8.606;2022-10-16T02:21:44;15.00;99.90
10411;DHT22;5251;52.112;8.606;2022-10-16T02:24:26;15.00;99.90
10411;DHT22;5251;52.112;8.606;2022-10-16T02:27:10;15.00;99.90
10411;DHT22;5251;52.112;8.606;2022-10-16T02:29:39;15.00;99.90
10411;DHT22;5251;52.112;8.606;2022-10-16T02:32:07;15.00;99.90
10411;DHT22;5251;52.112;8.606;2022-10-16T02:34:34;14.90;99.90
10411;DHT22;5251;52.112;8.606;2022-10-16T02:37:07;14.90;99.90
10411;DHT22;5251;52.112;8.606;2022-10-16T02:39:33;14.90;99.90
10411;DHT22;5251;52.112;8.606;2022-10-16T02:41:59;14.90;99.90
10411;DHT22;5251;52.112;8.606;2022-10-16T02:44:25;14.90;99.90
10411;DHT22;5251;52.112;8.606;2022-10-16T02:46:50;14.80;99.90
10411;DHT22;5251;52.112;8.606;2022-10-16T02:49:16;14.80;99.90
10411;DHT22;5251;52.112;8.606;2022-10-16T02:51:43;14.80;99.90
10411;DHT22;5251;52.112;8.606;2022-10-16T02:54:08;14.70;99.90
10411;DHT22;5251;52.112;8.606;2022-10-16T02:56:34;14.70;99.90
10411;DHT22;5251;52.112;8.606;2022-10-16T02:59:00;14.70;99.90
10411;DHT22;5251;52.112;8.606;2022-10-16T03:01:25;14.70;99.90
10411;DHT22;5251;52.112;8.606;2022-10-16T03:03:51;14.60;99.90
10411;DHT22;5251;52.112;8.606;2022-10-16T03:06:16;14.60;99.90
10411;DHT22;5251;52.112;8.606;2022-10-16T03:08:42;14.50;99.90
10411;DHT22;5251;52.112;8.606;2022-10-16T03:11:08;14.50;99.90
10411;DHT22;5251;52.112;8.606;2022-10-16T03:13:33;14.50;99.90
10411;DHT22;5251;52.112;8.606;2022-10-16T03:15:59;14.50;99.90
10411;DHT22;5251;52.112;8.606;2022-10-16T03:18:24;14.50;99.90
10411;DHT22;5251;52.112;8.606;2022-10-16T03:20:50;14.50;99.90
10411;DHT22;5251;52.112;8.606;2022-10-16T03:23:15;14.50;99.90
10411;DHT22;5251;52.112;8.606;2022-10-16T03:25:41;14.40;99.90
10411;DHT22;5251;52.112;8.606;2022-10-16T03:28:07;14.50;99.90
10411;DHT22;5251;52.112;8.606;2022-10-16T03:30:32;14.40;99.90
10411;DHT22;5251;52.112;8.606;2022-10-16T03:32:58;14.50;99.90
10411;DHT22;5251;52.112;8.606;2022-10-16T03:35:24;14.50;99.90
10411;DHT22;5251;52.112;8.606;2022-10-16T03:37:50;14.50;99.90
10411;DHT22;5251;52.112;8.606;2022-10-16T03:40:17;14.40;99.90
10411;DHT22;5251;52.112;8.606;2022-10-16T03:42:43;14.50;99.90
10411;DHT22;5251;52.112;8.606;2022-10-16T03:45:09;14.40;99.90
10411;DHT22;5251;52.112;8.606;2022-10-16T03:47:35;14.50;99.90
10411;DHT22;5251;52.112;8.606;2022-10-16T03:50:01;14.50;99.90
10411;DHT22;5251;52.112;8.606;2022-10-16T03:52:27;14.50;99.90
10411;DHT22;5251;52.112;8.606;2022-10-16T03:54:53;14.40;99.90
10411;DHT22;5251;52.112;8.606;2022-10-16T03:57:18;14.40;99.90
10411;DHT22;5251;52.112;8.606;2022-10-16T03:59:44;14.40;99.90
10411;DHT22;5251;52.112;8.606;2022-10-16T04:02:10;14.50;99.90
10411;DHT22;5251;52.112;8.606;2022-10-16T04:04:35;14.50;99.90
10411;DHT22;5251;52.112;8.606;2022-10-16T04:07:01;14.50;99.90
10411;DHT22;5251;52.112;8.606;2022-10-16T04:09:27;14.50;99.90
10411;DHT22;5251;52.112;8.606;2022-10-16T04:11:52;14.50;99.90
10411;DHT22;5251;52.112;8.606;2022-10-16T04:14:18;14.50;99.90
10411;DHT22;5251;52.112;8.606;2022-10-16T04:16:44;14.50;99.90
10411;DHT22;5251;52.112;8.606;2022-10-16T04:19:10;14.50;99.90
10411;DHT22;5251;52.112;8.606;2022-10-16T04:21:36;14.50;99.90
10411;DHT22;5251;52.112;8.606;2022-10-16T04:24:02;14.60;99.90
10411;DHT22;5251;52.112;8.606;2022-10-16T04:26:28;14.50;99.90
10411;DHT22;5251;52.112;8.606;2022-10-16T04:28:53;14.50;99.90
10411;DHT22;5251;52.112;8.606;2022-10-16T04:31:19;14.60;99.90
10411;DHT22;5251;52.112;8.606;2022-10-16T04:33:45;14.60;99.90
10411;DHT22;5251;52.112;8.606;2022-10-16T04:36:11;14.60;99.90
10411;DHT22;5251;52.112;8.606;2022-10-16T04:38:36;14.60;99.90
10411;DHT22;5251;52.112;8.606;2022-10-16T04:41:03;14.70;99.90
10411;DHT22;5251;52.112;8.606;2022-10-16T04:43:29;14.70;99.90
10411;DHT22;5251;52.112;8.606;2022-10-16T04:45:54;14.70;99.90
10411;DHT22;5251;52.112;8.606;2022-10-16T04:48:21;14.70;99.90
10411;DHT22;5251;52.112;8.606;2022-10-16T04:50:47;14.80;99.90
10411;DHT22;5251;52.112;8.606;2022-10-16T04:53:12;14.80;99.90
10411;DHT22;5251;52.112;8.606;2022-10-16T04:55:38;14.90;99.90
10411;DHT22;5251;52.112;8.606;2022-10-16T04:58:04;14.90;99.90
10411;DHT22;5251;52.112;8.606;2022-10-16T05:00:30;15.00;99.90
10411;DHT22;5251;52.112;8.606;2022-10-16T05:02:55;15.00;99.90
10411;DHT22;5251;52.112;8.606;2022-10-16T05:05:22;15.10;99.90
10411;DHT22;5251;52.112;8.606;2022-10-16T05:07:48;15.10;99.90
10411;DHT22;5251;52.112;8.606;2022-10-16T05:10:15;15.20;99.90
10411;DHT22;5251;52.112;8.606;2022-10-16T05:12:40;15.20;99.90
10411;DHT22;5251;52.112;8.606;2022-10-16T05:15:06;15.30;99.90
10411;DHT22;5251;52.112;8.606;2022-10-16T05:17:32;15.30;99.90
10411;DHT22;5251;52.112;8.606;2022-10-16T05:19:57;15.30;99.90
10411;DHT22;5251;52.112;8.606;2022-10-16T05:22:23;15.40;99.90
10411;DHT22;5251;52.112;8.606;2022-10-16T05:24:49;15.40;99.90
10411;DHT22;5251;52.112;8.606;2022-10-16T05:27:14;15.40;99.90
10411;DHT22;5251;52.112;8.606;2022-10-16T05:29:48;15.40;99.90
10411;DHT22;5251;52.112;8.606;2022-10-16T05:32:14;15.40;99.90
10411;DHT22;5251;52.112;8.606;2022-10-16T05:34:40;15.40;99.90
10411;DHT22;5251;52.112;8.606;2022-10-16T05:37:06;15.30;99.90
10411;DHT22;5251;52.112;8.606;2022-10-16T05:39:32;15.40;99.90
10411;DHT22;5251;52.112;8.606;2022-10-16T05:41:57;15.30;99.90
10411;DHT22;5251;52.112;8.606;2022-10-16T05:44:23;15.30;99.90
10411;DHT22;5251;52.112;8.606;2022-10-16T05:46:48;15.30;99.90
10411;DHT22;5251;52.112;8.606;2022-10-16T05:49:14;15.30;99.90
10411;DHT22;5251;52.112;8.606;2022-10-16T05:51:40;15.30;99.90
10411;DHT22;5251;52.112;8.606;2022-10-16T05:54:06;15.20;99.90
10411;DHT22;5251;52.112;8.606;2022-10-16T05:56:32;15.20;99.90
10411;DHT22;5251;52.112;8.606;2022-10-16T05:58:57;15.20;99.90
10411;DHT22;5251;52.112;8.606;2022-10-16T06:01:23;15.20;99.90
10411;DHT22;5251;52.112;8.606;2022-10-16T06:03:51;15.20;99.90
10411;DHT22;5251;52.112;8.606;2022-10-16T06:06:18;15.20;99.90
10411;DHT22;5251;52.112;8.606;2022-10-16T06:08:46;15.20;99.90
10411;DHT22;5251;52.112;8.606;2022-10-16T06:11:17;15.20;99.90
10411;DHT22;5251;52.112;8.606;2022-10-16T06:13:43;15.20;99.90
10411;DHT22;5251;52.112;8.606;2022-10-16T06:16:11;15.20;99.90
10411;DHT22;5251;52.112;8.606;2022-10-16T06:18:37;15.30;99.90
10411;DHT22;5251;52.112;8.606;2022-10-16T06:21:11;15.30;99.90
10411;DHT22;5251;52.112;8.606;2022-10-16T06:23:37;15.30;99.90
10411;DHT22;5251;52.112;8.606;2022-10-16T06:26:07;15.40;99.90
10411;DHT22;5251;52.112;8.606;2022-10-16T06:28:34;15.40;99.90
10411;DHT22;5251;52.112;8.606;2022-10-16T06:31:00;15.40;99.90
10411;DHT22;5251;52.112;8.606;2022-10-16T06:33:26;15.50;99.90
10411;DHT22;5251;52.112;8.606;2022-10-16T06:35:52;15.50;99.90
10411;DHT22;5251;52.112;8.606;2022-10-16T06:38:17;15.60;99.90
10411;DHT22;5251;52.112;8.606;2022-10-16T06:40:43;15.70;99.90
10411;DHT22;5251;52.112;8.606;2022-10-16T06:43:09;15.70;99.90
10411;DHT22;5251;52.112;8.606;2022-10-16T06:45:34;15.70;99.90
10411;DHT22;5251;52.112;8.606;2022-10-16T06:48:00;15.80;99.90
10411;DHT22;5251;52.112;8.606;2022-10-16T06:50:25;15.80;99.90
10411;DHT22;5251;52.112;8.606;2022-10-16T06:52:51;15.80;99.90
10411;DHT22;5251;52.112;8.606;2022-10-16T06:55:17;15.90;99.90
10411;DHT22;5251;52.112;8.606;2022-10-16T06:57:43;15.90;99.90
10411;DHT22;5251;52.112;8.606;2022-10-16T07:00:12;15.90;99.90
10411;DHT22;5251;52.112;8.606;2022-10-16T07:02:37;15.90;99.90
10411;DHT22;5251;52.112;8.606;2022-10-16T07:05:03;16.00;99.90
10411;DHT22;5251;52.112;8.606;2022-10-16T07:07:29;16.00;99.90
10411;DHT22;5251;52.112;8.606;2022-10-16T07:09:55;16.00;99.90
10411;DHT22;5251;52.112;8.606;2022-10-16T07:12:20;16.10;99.90
10411;DHT22;5251;52.112;8.606;2022-10-16T07:14:46;16.10;99.90
10411;DHT22;5251;52.112;8.606;2022-10-16T07:17:11;16.20;99.90
10411;DHT22;5251;52.112;8.606;2022-10-16T07:19:37;16.30;99.90
10411;DHT22;5251;52.112;8.606;2022-10-16T07:22:03;16.40;99.90
10411;DHT22;5251;52.112;8.606;2022-10-16T07:24:28;16.50;99.90
10411;DHT22;5251;52.112;8.606;2022-10-16T07:26:54;16.60;99.90
10411;DHT22;5251;52.112;8.606;2022-10-16T07:29:21;16.60;99.90
10411;DHT22;5251;52.112;8.606;2022-10-16T07:31:47;16.80;99.90
10411;DHT22;5251;52.112;8.606;2022-10-16T07:34:14;16.80;99.90
10411;DHT22;5251;52.112;8.606;2022-10-16T07:36:40;16.90;99.90
10411;DHT22;5251;52.112;8.606;2022-10-16T07:39:06;17.00;99.90
10411;DHT22;5251;52.112;8.606;2022-10-16T07:41:31;17.10;99.90
10411;DHT22;5251;52.112;8.606;2022-10-16T07:43:58;17.20;99.90
10411;DHT22;5251;52.112;8.606;2022-10-16T07:46:26;17.20;99.90
10411;DHT22;5251;52.112;8.606;2022-10-16T07:48:52;17.30;99.90
10411;DHT22;5251;52.112;8.606;2022-10-16T07:51:20;17.30;99.90
10411;DHT22;5251;52.112;8.606;2022-10-16T07:53:46;17.40;99.90
10411;DHT22;5251;52.112;8.606;2022-10-16T07:56:12;17.40;99.90
10411;DHT22;5251;52.112;8.606;2022-10-16T07:58:38;17.40;99.90
10411;DHT22;5251;52.112;8.606;2022-10-16T08:01:06;17.40;99.90
10411;DHT22;5251;52.112;8.606;2022-10-16T08:03:32;17.40;99.90
10411;DHT22;5251;52.112;8.606;2022-10-16T08:05:59;17.40;99.90
10411;DHT22;5251;52.112;8.606;2022-10-16T08:08:25;17.30;99.90
10411;DHT22;5251;52.112;8.606;2022-10-16T08:10:51;17.30;99.90
10411;DHT22;5251;52.112;8.606;2022-10-16T08:13:17;17.30;99.90
10411;DHT22;5251;52.112;8.606;2022-10-16T08:15:43;17.30;99.90
10411;DHT22;5251;52.112;8.606;2022-10-16T08:18:11;17.30;99.90
10411;DHT22;5251;52.112;8.606;2022-10-16T08:20:38;17.30;99.90
10411;DHT22;5251;52.112;8.606;2022-10-16T08:23:04;17.30;99.90
10411;DHT22;5251;52.112;8.606;2022-10-16T08:25:30;17.30;99.90
10411;DHT22;5251;52.112;8.606;2022-10-16T08:27:56;17.30;99.90
10411;DHT22;5251;52.112;8.606;2022-10-16T08:30:23;17.40;99.90
10411;DHT22;5251;52.112;8.606;2022-10-16T08:32:49;17.40;99.90
10411;DHT22;5251;52.112;8.606;2022-10-16T08:35:15;17.40;99.90
10411;DHT22;5251;52.112;8.606;2022-10-16T08:37:41;17.50;99.90
10411;DHT22;5251;52.112;8.606;2022-10-16T08:40:19;17.50;99.90
10411;DHT22;5251;52.112;8.606;2022-10-16T08:43:04;17.50;99.90
10411;DHT22;5251;52.112;8.606;2022-10-16T08:48:35;17.60;99.90
10411;DHT22;5251;52.112;8.606;2022-10-16T08:51:08;17.70;99.90
10411;DHT22;5251;52.112;8.606;2022-10-16T08:53:48;17.70;99.90
10411;DHT22;5251;52.112;8.606;2022-10-16T08:56:14;17.80;99.90
10411;DHT22;5251;52.112;8.606;2022-10-16T08:58:39;17.80;99.90
10411;DHT22;5251;52.112;8.606;2022-10-16T09:01:12;17.90;99.90
10411;DHT22;5251;52.112;8.606;2022-10-16T09:07:02;18.00;99.90
10411;DHT22;5251;52.112;8.606;2022-10-16T09:12:45;18.10;99.90
10411;DHT22;5251;52.112;8.606;2022-10-16T09:15:20;18.10;99.90
10411;DHT22;5251;52.112;8.606;2022-10-16T09:21:01;18.20;99.90
10411;DHT22;5251;52.112;8.606;2022-10-16T09:23:33;18.20;99.90
10411;DHT22;5251;52.112;8.606;2022-10-16T09:25:59;18.30;99.90
10411;DHT22;5251;52.112;8.606;2022-10-16T09:28:25;18.40;99.90
10411;DHT22;5251;52.112;8.606;2022-10-16T09:30:51;18.40;99.90
10411;DHT22;5251;52.112;8.606;2022-10-16T09:33:19;18.50;99.90
10411;DHT22;5251;52.112;8.606;2022-10-16T09:35:53;18.50;99.90
10411;DHT22;5251;52.112;8.606;2022-10-16T09:40:47;18.70;99.90
10411;DHT22;5251;52.112;8.606;2022-10-16T09:43:26;18.70;99.90
10411;DHT22;5251;52.112;8.606;2022-10-16T09:48:35;18.80;99.90
10411;DHT22;5251;52.112;8.606;2022-10-16T09:51:03;18.90;99.90
10411;DHT22;5251;52.112;8.606;2022-10-16T09:53:46;18.90;99.90
10411;DHT22;5251;52.112;8.606;2022-10-16T09:56:21;18.90;99.90
10411;DHT22;5251;52.112;8.606;2022-10-16T09:58:52;19.00;99.90
10411;DHT22;5251;52.112;8.606;2022-10-16T10:01:19;19.10;99.90
10411;DHT22;5251;52.112;8.606;2022-10-16T10:03:45;19.10;99.90
10411;DHT22;5251;52.112;8.606;2022-10-16T10:06:18;19.20;99.90
10411;DHT22;5251;52.112;8.606;2022-10-16T10:09:06;19.20;99.90
10411;DHT22;5251;52.112;8.606;2022-10-16T10:11:39;19.30;99.90
10411;DHT22;5251;52.112;8.606;2022-10-16T10:16:46;19.50;99.90
10411;DHT22;5251;52.112;8.606;2022-10-16T10:19:22;19.60;99.90
10411;DHT22;5251;52.112;8.606;2022-10-16T10:21:49;19.60;99.90
10411;DHT22;5251;52.112;8.606;2022-10-16T10:24:18;19.70;99.90
10411;DHT22;5251;52.112;8.606;2022-10-16T10:27:09;19.80;99.90
10411;DHT22;5251;52.112;8.606;2022-10-16T10:30:13;19.80;99.90
10411;DHT22;5251;52.112;8.606;2022-10-16T10:35:33;19.90;99.90
10411;DHT22;5251;52.112;8.606;2022-10-16T10:38:25;20.00;99.90
10411;DHT22;5251;52.112;8.606;2022-10-16T10:44:35;20.10;99.90
10411;DHT22;5251;52.112;8.606;2022-10-16T10:52:43;20.30;99.90
10411;DHT22;5251;52.112;8.606;2022-10-16T11:01:08;20.40;99.90
10411;DHT22;5251;52.112;8.606;2022-10-16T11:06:19;20.40;99.90
10411;DHT22;5251;52.112;8.606;2022-10-16T11:09:20;20.50;99.90
10411;DHT22;5251;52.112;8.606;2022-10-16T11:17:49;20.80;99.90
10411;DHT22;5251;52.112;8.606;2022-10-16T11:20:23;20.90;99.90
10411;DHT22;5251;52.112;8.606;2022-10-16T11:23:31;21.00;99.90
10411;DHT22;5251;52.112;8.606;2022-10-16T11:26:02;21.00;99.90
10411;DHT22;5251;52.112;8.606;2022-10-16T11:28:45;21.00;99.90
10411;DHT22;5251;52.112;8.606;2022-10-16T11:39:52;21.20;99.90
10411;DHT22;5251;52.112;8.606;2022-10-16T11:42:24;21.20;99.90
10411;DHT22;5251;52.112;8.606;2022-10-16T11:45:08;21.30;99.90
10411;DHT22;5251;52.112;8.606;2022-10-16T11:47:45;21.30;99.80
10411;DHT22;5251;52.112;8.606;2022-10-16T11:55:53;21.40;98.90
10411;DHT22;5251;52.112;8.606;2022-10-16T12:01:24;21.50;99.30
10411;DHT22;5251;52.112;8.606;2022-10-16T12:09:26;21.60;98.40
10411;DHT22;5251;52.112;8.606;2022-10-16T12:11:53;21.60;98.10
10411;DHT22;5251;52.112;8.606;2022-10-16T12:17:23;21.70;97.90
10411;DHT22;5251;52.112;8.606;2022-10-16T12:22:42;21.80;97.50
10411;DHT22;5251;52.112;8.606;2022-10-16T12:25:36;21.80;97.40
10411;DHT22;5251;52.112;8.606;2022-10-16T12:28:21;21.90;97.10
10411;DHT22;5251;52.112;8.606;2022-10-16T12:30:56;22.00;97.60
10411;DHT22;5251;52.112;8.606;2022-10-16T12:33:34;22.00;97.30
10411;DHT22;5251;52.112;8.606;2022-10-16T12:36:03;22.00;97.30
10411;DHT22;5251;52.112;8.606;2022-10-16T12:38:32;22.10;97.20
10411;DHT22;5251;52.112;8.606;2022-10-16T12:41:06;22.10;96.70
10411;DHT22;5251;52.112;8.606;2022-10-16T12:43:43;22.10;97.20
10411;DHT22;5251;52.112;8.606;2022-10-16T12:48:36;22.20;96.10
10411;DHT22;5251;52.112;8.606;2022-10-16T12:51:22;22.20;95.90
10411;DHT22;5251;52.112;8.606;2022-10-16T12:54:14;22.20;96.00
10411;DHT22;5251;52.112;8.606;2022-10-16T12:56:44;22.20;95.80
10411;DHT22;5251;52.112;8.606;2022-10-16T12:59:33;22.20;95.10
10411;DHT22;5251;52.112;8.606;2022-10-16T13:07:56;22.10;95.40
10411;DHT22;5251;52.112;8.606;2022-10-16T13:13:36;22.00;95.00
10411;DHT22;5251;52.112;8.606;2022-10-16T13:18:52;21.80;95.80
10411;DHT22;5251;52.112;8.606;2022-10-16T13:25:16;21.70;96.00
10411;DHT22;5251;52.112;8.606;2022-10-16T13:27:54;21.60;95.50
10411;DHT22;5251;52.112;8.606;2022-10-16T13:30:25;21.60;96.10
10411;DHT22;5251;52.112;8.606;2022-10-16T13:35:37;21.60;96.20
10411;DHT22;5251;52.112;8.606;2022-10-16T13:38:21;21.60;95.50
10411;DHT22;5251;52.112;8.606;2022-10-16T13:41:01;21.50;95.70
10411;DHT22;5251;52.112;8.606;2022-10-16T13:43:33;21.50;95.80
10411;DHT22;5251;52.112;8.606;2022-10-16T13:46:04;21.50;95.70
10411;DHT22;5251;52.112;8.606;2022-10-16T13:48:32;21.50;95.80
10411;DHT22;5251;52.112;8.606;2022-10-16T13:51:00;21.40;95.50
10411;DHT22;5251;52.112;8.606;2022-10-16T13:53:26;21.30;95.20
10411;DHT22;5251;52.112;8.606;2022-10-16T13:55:52;21.30;95.10
10411;DHT22;5251;52.112;8.606;2022-10-16T13:58:18;21.30;95.20
10411;DHT22;5251;52.112;8.606;2022-10-16T14:01:02;21.30;95.90
10411;DHT22;5251;52.112;8.606;2022-10-16T14:03:29;21.20;95.90
10411;DHT22;5251;52.112;8.606;2022-10-16T14:05:59;21.20;95.80
10411;DHT22;5251;52.112;8.606;2022-10-16T14:08:26;21.20;96.00
10411;DHT22;5251;52.112;8.606;2022-10-16T14:10:58;21.10;96.30
10411;DHT22;5251;52.112;8.606;2022-10-16T14:13:37;21.10;96.30
10411;DHT22;5251;52.112;8.606;2022-10-16T14:16:17;21.10;96.60
10411;DHT22;5251;52.112;8.606;2022-10-16T14:18:55;21.00;96.40
10411;DHT22;5251;52.112;8.606;2022-10-16T14:21:21;21.00;96.20
10411;DHT22;5251;52.112;8.606;2022-10-16T14:23:47;20.90;96.40
10411;DHT22;5251;52.112;8.606;2022-10-16T14:26:15;20.80;96.80
10411;DHT22;5251;52.112;8.606;2022-10-16T14:28:42;20.80;97.00
10411;DHT22;5251;52.112;8.606;2022-10-16T14:33:48;20.70;97.00
10411;DHT22;5251;52.112;8.606;2022-10-16T14:36:15;20.70;97.00
10411;DHT22;5251;52.112;8.606;2022-10-16T14:41:28;20.60;97.10
10411;DHT22;5251;52.112;8.606;2022-10-16T14:43:56;20.60;97.10
10411;DHT22;5251;52.112;8.606;2022-10-16T14:46:49;20.60;97.50
10411;DHT22;5251;52.112;8.606;2022-10-16T14:49:17;20.50;97.40
10411;DHT22;5251;52.112;8.606;2022-10-16T14:51:45;20.50;97.10
10411;DHT22;5251;52.112;8.606;2022-10-16T14:54:16;20.50;97.40
10411;DHT22;5251;52.112;8.606;2022-10-16T14:56:48;20.50;97.20
10411;DHT22;5251;52.112;8.606;2022-10-16T14:59:22;20.50;97.10
10411;DHT22;5251;52.112;8.606;2022-10-16T15:01:49;20.40;96.70
10411;DHT22;5251;52.112;8.606;2022-10-16T15:04:15;20.40;96.80
10411;DHT22;5251;52.112;8.606;2022-10-16T15:06:42;20.40;96.80
10411;DHT22;5251;52.112;8.606;2022-10-16T15:09:08;20.30;96.70
10411;DHT22;5251;52.112;8.606;2022-10-16T15:11:33;20.30;96.90
10411;DHT22;5251;52.112;8.606;2022-10-16T15:13:59;20.20;96.90
10411;DHT22;5251;52.112;8.606;2022-10-16T15:16:25;20.20;97.30
10411;DHT22;5251;52.112;8.606;2022-10-16T15:18:50;20.20;97.40
10411;DHT22;5251;52.112;8.606;2022-10-16T15:21:34;20.10;97.60
10411;DHT22;5251;52.112;8.606;2022-10-16T15:24:00;20.10;97.90
10411;DHT22;5251;52.112;8.606;2022-10-16T15:26:27;20.10;97.90
10411;DHT22;5251;52.112;8.606;2022-10-16T15:28:53;20.10;97.90
10411;DHT22;5251;52.112;8.606;2022-10-16T15:31:19;20.10;98.10
10411;DHT22;5251;52.112;8.606;2022-10-16T15:33:50;20.10;97.90
10411;DHT22;5251;52.112;8.606;2022-10-16T15:36:25;20.20;98.00
10411;DHT22;5251;52.112;8.606;2022-10-16T15:38:51;20.20;98.20
10411;DHT22;5251;52.112;8.606;2022-10-16T15:41:17;20.20;98.20
10411;DHT22;5251;52.112;8.606;2022-10-16T15:43:42;20.10;97.90
10411;DHT22;5251;52.112;8.606;2022-10-16T15:46:11;20.10;97.90
10411;DHT22;5251;52.112;8.606;2022-10-16T15:48:39;20.10;97.90
10411;DHT22;5251;52.112;8.606;2022-10-16T15:51:06;20.10;97.90
10411;DHT22;5251;52.112;8.606;2022-10-16T15:53:32;20.00;97.70
10411;DHT22;5251;52.112;8.606;2022-10-16T15:56:02;19.90;97.60
10411;DHT22;5251;52.112;8.606;2022-10-16T15:58:27;19.90;97.70
10411;DHT22;5251;52.112;8.606;2022-10-16T16:00:57;19.80;97.80
10411;DHT22;5251;52.112;8.606;2022-10-16T16:03:23;19.70;97.70
10411;DHT22;5251;52.112;8.606;2022-10-16T16:05:49;19.60;97.80
10411;DHT22;5251;52.112;8.606;2022-10-16T16:08:14;19.60;98.00
10411;DHT22;5251;52.112;8.606;2022-10-16T16:10:40;19.50;98.10
10411;DHT22;5251;52.112;8.606;2022-10-16T16:13:06;19.40;98.80
10411;DHT22;5251;52.112;8.606;2022-10-16T16:15:31;19.30;99.40
10411;DHT22;5251;52.112;8.606;2022-10-16T16:17:57;19.30;99.60
10411;DHT22;5251;52.112;8.606;2022-10-16T16:20:23;19.20;99.80
10411;DHT22;5251;52.112;8.606;2022-10-16T16:22:48;19.20;99.90
10411;DHT22;5251;52.112;8.606;2022-10-16T16:25:14;19.20;99.90
10411;DHT22;5251;52.112;8.606;2022-10-16T16:27:40;19.10;99.90
10411;DHT22;5251;52.112;8.606;2022-10-16T16:30:06;19.10;99.90
10411;DHT22;5251;52.112;8.606;2022-10-16T16:32:34;19.10;99.90
10411;DHT22;5251;52.112;8.606;2022-10-16T16:35:00;19.10;99.90
10411;DHT22;5251;52.112;8.606;2022-10-16T16:37:25;19.10;99.90
10411;DHT22;5251;52.112;8.606;2022-10-16T16:39:51;19.00;99.90
10411;DHT22;5251;52.112;8.606;2022-10-16T16:42:16;19.00;99.90
10411;DHT22;5251;52.112;8.606;2022-10-16T16:44:42;19.00;99.90
10411;DHT22;5251;52.112;8.606;2022-10-16T16:47:09;19.00;99.90
10411;DHT22;5251;52.112;8.606;2022-10-16T16:49:35;19.00;99.90
10411;DHT22;5251;52.112;8.606;2022-10-16T16:52:00;19.00;99.90
10411;DHT22;5251;52.112;8.606;2022-10-16T16:54:26;18.90;99.90
10411;DHT22;5251;52.112;8.606;2022-10-16T16:56:52;19.00;99.90
10411;DHT22;5251;52.112;8.606;2022-10-16T16:59:19;18.90;99.90
10411;DHT22;5251;52.112;8.606;2022-10-16T17:01:45;18.90;99.90
10411;DHT22;5251;52.112;8.606;2022-10-16T17:04:12;18.90;99.90
10411;DHT22;5251;52.112;8.606;2022-10-16T17:06:40;18.90;99.90
10411;DHT22;5251;52.112;8.606;2022-10-16T17:09:06;18.90;99.90
10411;DHT22;5251;52.112;8.606;2022-10-16T17:11:32;18.80;99.90
10411;DHT22;5251;52.112;8.606;2022-10-16T17:13:59;18.80;99.90
10411;DHT22;5251;52.112;8.606;2022-10-16T17:16:31;18.80;99.90
10411;DHT22;5251;52.112;8.606;2022-10-16T17:19:00;18.70;99.90
10411;DHT22;5251;52.112;8.606;2022-10-16T17:21:26;18.70;99.90
10411;DHT22;5251;52.112;8.606;2022-10-16T17:23:55;18.60;99.90
10411;DHT22;5251;52.112;8.606;2022-10-16T17:26:20;18.60;99.90
10411;DHT22;5251;52.112;8.606;2022-10-16T17:28:49;18.50;99.90
10411;DHT22;5251;52.112;8.606;2022-10-16T17:31:18;18.40;99.90
10411;DHT22;5251;52.112;8.606;2022-10-16T17:33:45;18.30;99.90
10411;DHT22;5251;52.112;8.606;2022-10-16T17:36:12;18.30;99.90
10411;DHT22;5251;52.112;8.606;2022-10-16T17:38:40;18.20;99.90
10411;DHT22;5251;52.112;8.606;2022-10-16T17:41:21;18.20;99.90
10411;DHT22;5251;52.112;8.606;2022-10-16T17:43:47;18.10;99.90
10411;DHT22;5251;52.112;8.606;2022-10-16T17:46:15;18.10;99.90
10411;DHT22;5251;52.112;8.606;2022-10-16T17:48:45;18.00;99.90
10411;DHT22;5251;52.112;8.606;2022-10-16T17:51:14;17.90;99.90